Time;durP1;ratioP1;P1;durP2;ratioP2;P2;SDS_P1;SDS_P2;PMS_P1;PMS_P2;Temp;Humidity;BMP_temperature;BMP_pressure;BME280_temperature;BME280_humidity;BME280_pressure;Samples;Min_cycle;Max_cycle;Signal;HPM_P1;HPM_P2
2023/04/03 00:01:28;;;;;;;6.38;3.65;;;11.10;88.00;;;;;;4994883;28;20318;-70
2023/04/03 00:03:54;;;;;;;6.32;4.38;;;11.10;88.20;;;;;;4995158;28;20038;-70
2023/04/03 00:06:20;;;;;;;5.93;3.92;;;11.10;88.40;;;;;;4995149;28;20031;-70
2023/04/03 00:08:46;;;;;;;5.38;4.05;;;11.10;88.80;;;;;;4977160;28;20022;-70
2023/04/03 00:11:12;;;;;;;6.80;4.18;;;11.00;89.40;;;;;;4995160;28;20037;-70
2023/04/03 00:13:38;;;;;;;6.10;3.83;;;11.00;89.40;;;;;;4994894;28;20476;-71
2023/04/03 00:16:05;;;;;;;8.82;4.20;;;11.00;89.40;;;;;;4994797;28;20041;-71
2023/04/03 00:18:31;;;;;;;5.75;3.22;;;11.00;89.40;;;;;;4995220;28;20443;-71
2023/04/03 00:20:56;;;;;;;6.60;3.65;;;11.00;88.70;;;;;;4995043;28;20062;-70
2023/04/03 00:23:23;;;;;;;4.20;3.20;;;11.00;88.40;;;;;;4994837;28;20490;-71
2023/04/03 00:25:49;;;;;;;4.47;3.05;;;11.00;88.10;;;;;;4994794;28;20031;-69
2023/04/03 00:28:15;;;;;;;6.30;3.33;;;11.00;88.20;;;;;;4994350;28;20520;-70
2023/04/03 00:30:40;;;;;;;3.88;2.90;;;11.00;87.80;;;;;;4994485;28;20165;-70
2023/04/03 00:33:06;;;;;;;6.03;4.00;;;11.00;87.60;;;;;;4994397;28;20018;-70
2023/04/03 00:35:32;;;;;;;9.98;3.67;;;11.00;87.80;;;;;;4994661;28;20026;-71
2023/04/03 00:37:57;;;;;;;5.45;3.42;;;10.90;87.80;;;;;;4994431;28;20050;-70
2023/04/03 00:40:26;;;;;;;4.75;3.50;;;10.90;88.00;;;;;;4994410;28;20030;-70
2023/04/03 00:42:56;;;;;;;5.65;3.67;;;10.80;88.30;;;;;;4994450;28;20089;-70
2023/04/03 00:45:40;;;;;;;5.65;3.70;;;10.80;88.30;;;;;;4994188;28;20036;-70
2023/04/03 00:48:09;;;;;;;5.45;3.17;;;10.90;87.90;;;;;;4976918;28;20027;-70
2023/04/03 00:50:38;;;;;;;5.28;3.83;;;10.90;87.80;;;;;;4994225;28;20045;-70
2023/04/03 00:53:06;;;;;;;5.55;3.55;;;10.90;87.60;;;;;;4994206;28;20054;-70
2023/04/03 00:55:32;;;;;;;5.78;3.70;;;10.80;87.60;;;;;;4994195;28;20026;-69
2023/04/03 00:58:00;;;;;;;7.07;3.90;;;10.90;87.60;;;;;;4994029;28;20026;-70
2023/04/03 01:00:26;;;;;;;3.65;2.95;;;10.90;87.50;;;;;;4994132;28;20053;-71
2023/04/03 01:02:51;;;;;;;5.30;3.80;;;10.90;87.70;;;;;;4994009;28;20022;-70
2023/04/03 01:05:18;;;;;;;7.05;4.13;;;10.80;88.10;;;;;;4993853;28;20030;-70
2023/04/03 01:07:45;;;;;;;7.05;4.10;;;10.70;88.70;;;;;;4993894;28;20097;-70
2023/04/03 01:10:14;;;;;;;7.00;3.92;;;10.70;88.70;;;;;;4993981;28;20038;-70
2023/04/03 01:12:42;;;;;;;5.75;3.67;;;10.70;88.80;;;;;;4976233;28;20041;-70
2023/04/03 01:15:18;;;;;;;7.38;4.22;;;10.80;88.50;;;;;;4976052;28;20305;-69
2023/04/03 01:17:47;;;;;;;6.13;3.53;;;10.70;88.50;;;;;;4994134;28;20034;-71
2023/04/03 01:20:31;;;;;;;7.40;4.05;;;10.70;88.70;;;;;;4993628;28;20061;-70
2023/04/03 01:23:08;;;;;;;6.60;4.00;;;10.60;88.70;;;;;;4993705;28;20026;-70
2023/04/03 01:25:36;;;;;;;7.22;3.95;;;10.60;89.20;;;;;;4993606;28;20061;-70
2023/04/03 01:28:03;;;;;;;7.18;4.18;;;10.60;89.20;;;;;;4993391;28;20026;-70
2023/04/03 01:30:37;;;;;;;4.95;4.43;;;10.60;89.20;;;;;;4993506;28;20502;-70
2023/04/03 01:33:02;;;;;;;5.70;4.32;;;10.60;89.20;;;;;;4993426;28;20030;-70
2023/04/03 01:35:28;;;;;;;6.50;4.30;;;10.50;89.50;;;;;;4993723;28;20023;-70
2023/04/03 01:37:53;;;;;;;6.68;4.68;;;10.60;89.40;;;;;;4993517;28;20464;-70
2023/04/03 01:40:19;;;;;;;6.32;4.35;;;10.50;89.80;;;;;;4993358;28;20045;-70
2023/04/03 01:42:45;;;;;;;6.07;3.65;;;10.40;89.60;;;;;;4993299;28;20038;-69
2023/04/03 01:45:10;;;;;;;8.85;4.38;;;10.40;89.90;;;;;;4993191;28;20510;-70
2023/04/03 01:47:36;;;;;;;8.48;4.40;;;10.40;90.00;;;;;;4993264;28;20031;-70
2023/04/03 01:50:02;;;;;;;6.72;4.20;;;10.50;89.70;;;;;;4993121;28;20403;-70
2023/04/03 01:52:27;;;;;;;6.57;4.63;;;10.40;89.80;;;;;;4993431;28;20069;-70
2023/04/03 01:54:53;;;;;;;6.00;4.20;;;10.40;89.90;;;;;;4993061;28;20387;-70
2023/04/03 01:57:18;;;;;;;5.78;4.28;;;10.40;90.00;;;;;;5003435;28;20096;-69
2023/04/03 01:59:44;;;;;;;5.80;4.22;;;10.40;90.10;;;;;;4992685;28;20545;-70
2023/04/03 02:02:12;;;;;;;7.53;4.97;;;10.40;90.30;;;;;;4992705;28;20026;-70
2023/04/03 02:04:37;;;;;;;7.78;4.50;;;10.30;90.30;;;;;;4993040;28;20030;-70
2023/04/03 02:07:03;;;;;;;7.60;4.32;;;10.30;90.40;;;;;;4993073;28;20045;-70
2023/04/03 02:09:29;;;;;;;4.88;3.33;;;10.30;90.40;;;;;;4992983;28;20031;-70
2023/04/03 02:11:55;;;;;;;7.45;4.75;;;10.30;90.30;;;;;;4992942;28;20019;-69
2023/04/03 02:14:21;;;;;;;8.25;4.80;;;10.30;90.40;;;;;;4992719;28;20036;-70
2023/04/03 02:16:47;;;;;;;7.38;4.88;;;10.20;90.50;;;;;;4992942;28;20038;-69
2023/04/03 02:19:13;;;;;;;8.57;5.05;;;10.30;90.50;;;;;;4993001;28;20034;-70
2023/04/03 02:21:38;;;;;;;6.47;4.20;;;10.20;90.50;;;;;;4993242;28;20022;-70
2023/04/03 02:24:05;;;;;;;5.43;4.07;;;10.20;90.50;;;;;;4992884;28;20084;-70
2023/04/03 02:26:30;;;;;;;6.88;4.13;;;10.20;90.30;;;;;;4992819;28;20037;-70
2023/04/03 02:28:56;;;;;;;5.57;4.22;;;10.20;90.30;;;;;;4992932;28;20027;-69
2023/04/03 02:31:21;;;;;;;6.30;4.28;;;10.10;90.50;;;;;;4992986;28;20387;-70
2023/04/03 02:33:47;;;;;;;8.90;3.90;;;10.10;90.60;;;;;;4996390;28;20468;-70
2023/04/03 02:36:13;;;;;;;7.50;4.45;;;10.10;90.60;;;;;;4996706;28;20101;-70
2023/04/03 02:38:39;;;;;;;6.85;4.45;;;10.10;90.20;;;;;;4996594;28;20026;-69
2023/04/03 02:41:08;;;;;;;6.80;4.57;;;10.10;90.20;;;;;;4996623;28;20482;-70
2023/04/03 02:43:34;;;;;;;6.57;4.13;;;10.10;90.50;;;;;;4996656;28;20109;-70
2023/04/03 02:45:59;;;;;;;6.28;4.10;;;10.10;90.10;;;;;;4996780;28;20560;-71
2023/04/03 02:48:25;;;;;;;7.97;4.15;;;10.10;90.20;;;;;;4996613;28;20427;-70
2023/04/03 02:50:51;;;;;;;6.97;4.40;;;10.10;90.10;;;;;;4996386;28;20034;-70
2023/04/03 02:53:17;;;;;;;8.40;4.82;;;10.10;90.00;;;;;;4996205;28;20026;-69
2023/04/03 02:55:43;;;;;;;7.13;4.00;;;10.10;90.00;;;;;;4996444;28;20037;-70
2023/04/03 02:58:08;;;;;;;5.00;3.75;;;10.10;89.70;;;;;;4996268;28;20052;-70
2023/04/03 03:00:34;;;;;;;7.35;4.18;;;10.10;89.50;;;;;;4996301;28;20110;-70
2023/04/03 03:03:00;;;;;;;6.03;4.30;;;10.10;89.50;;;;;;4996366;28;20038;-70
2023/04/03 03:05:27;;;;;;;6.00;4.00;;;10.00;90.00;;;;;;4996232;28;20029;-70
2023/04/03 03:07:53;;;;;;;7.95;4.95;;;10.00;90.20;;;;;;4995921;28;20033;-71
2023/04/03 03:10:18;;;;;;;15.88;6.25;;;9.90;90.30;;;;;;4995990;28;20030;-70
2023/04/03 03:12:44;;;;;;;10.43;6.07;;;9.90;90.20;;;;;;4996119;28;20030;-69
2023/04/03 03:15:10;;;;;;;11.80;6.80;;;9.90;90.10;;;;;;4995922;28;20030;-70
2023/04/03 03:17:36;;;;;;;10.18;6.97;;;10.00;90.00;;;;;;4995988;28;20488;-71
2023/04/03 03:20:05;;;;;;;7.70;6.20;;;10.00;89.90;;;;;;4996099;28;20022;-69
2023/04/03 03:22:31;;;;;;;9.13;6.65;;;9.90;90.10;;;;;;4995706;28;20022;-70
2023/04/03 03:24:56;;;;;;;9.68;5.72;;;9.90;90.00;;;;;;4996426;28;20045;-70
2023/04/03 03:27:23;;;;;;;7.25;4.82;;;9.80;90.20;;;;;;4995902;28;20022;-70
2023/04/03 03:29:49;;;;;;;6.65;4.93;;;9.80;90.30;;;;;;5004763;28;20423;-70
2023/04/03 03:32:15;;;;;;;7.20;4.53;;;9.80;90.30;;;;;;5014811;28;20523;-69
2023/04/03 03:34:40;;;;;;;6.07;4.75;;;9.80;90.40;;;;;;5012937;28;20042;-70
2023/04/03 03:37:06;;;;;;;6.60;4.97;;;9.80;90.20;;;;;;5013909;28;20029;-70
2023/04/03 03:39:31;;;;;;;5.57;4.82;;;9.70;90.40;;;;;;5015263;28;20053;-70
2023/04/03 03:41:57;;;;;;;6.95;4.55;;;9.80;90.40;;;;;;5015020;28;20475;-70
2023/04/03 03:44:22;;;;;;;7.13;4.40;;;9.70;90.50;;;;;;5013963;28;20379;-70
2023/04/03 03:46:48;;;;;;;7.63;5.10;;;9.70;90.60;;;;;;5015136;28;20025;-69
2023/04/03 03:49:13;;;;;;;7.60;4.90;;;9.70;90.50;;;;;;5014898;28;20037;-70
2023/04/03 03:51:39;;;;;;;8.35;4.45;;;9.70;90.40;;;;;;5014743;28;20084;-70
2023/04/03 03:54:05;;;;;;;6.68;4.47;;;9.70;90.60;;;;;;5014982;28;20532;-70
2023/04/03 03:56:31;;;;;;;7.22;4.32;;;9.60;90.70;;;;;;5014857;28;20065;-70
2023/04/03 03:58:57;;;;;;;7.10;4.65;;;9.70;90.60;;;;;;5015011;28;20030;-69
2023/04/03 04:01:24;;;;;;;7.78;4.90;;;9.60;90.60;;;;;;5014758;28;20018;-70
2023/04/03 04:03:50;;;;;;;10.15;4.97;;;9.60;90.60;;;;;;5014721;28;20352;-69
2023/04/03 04:06:15;;;;;;;4.97;4.22;;;9.60;90.70;;;;;;5014598;28;20542;-69
2023/04/03 04:08:41;;;;;;;7.50;4.70;;;9.60;90.70;;;;;;5014705;28;20040;-69
2023/04/03 04:11:07;;;;;;;9.48;5.43;;;9.60;90.60;;;;;;5014956;28;20044;-70
2023/04/03 04:13:33;;;;;;;4.97;4.07;;;9.60;90.60;;;;;;5014732;28;20029;-71
2023/04/03 04:15:59;;;;;;;7.40;3.88;;;9.60;93.00;;;;;;5014305;28;20030;-70
2023/04/03 04:18:25;;;;;;;6.13;4.25;;;9.70;93.20;;;;;;5014831;28;20079;-70
2023/04/03 04:20:50;;;;;;;6.15;4.07;;;9.70;93.10;;;;;;5008996;28;20468;-71
2023/04/03 04:23:18;;;;;;;5.70;4.05;;;9.70;93.30;;;;;;5003198;28;20041;-70
2023/04/03 04:25:47;;;;;;;4.85;3.80;;;9.70;93.30;;;;;;4992762;28;20034;-70
2023/04/03 04:28:13;;;;;;;8.05;4.30;;;9.80;93.30;;;;;;4994357;28;20030;-70
2023/04/03 04:30:38;;;;;;;5.78;4.18;;;9.70;93.30;;;;;;4994871;28;20040;-70
2023/04/03 04:33:04;;;;;;;7.65;4.57;;;9.70;93.30;;;;;;4994371;28;20035;-70
2023/04/03 04:35:30;;;;;;;6.82;4.55;;;9.70;93.40;;;;;;4994418;28;20468;-70
2023/04/03 04:37:55;;;;;;;6.68;4.47;;;9.70;93.30;;;;;;4994444;28;20118;-70
2023/04/03 04:40:22;;;;;;;9.30;4.50;;;9.70;93.40;;;;;;4994683;28;20110;-70
2023/04/03 04:42:47;;;;;;;5.57;3.85;;;9.70;93.80;;;;;;4993790;28;20049;-70
2023/04/03 04:45:13;;;;;;;7.55;4.20;;;9.70;93.50;;;;;;4994344;28;20467;-70
2023/04/03 04:47:38;;;;;;;7.10;4.28;;;9.70;93.50;;;;;;5001111;28;20030;-70
2023/04/03 04:50:05;;;;;;;7.55;4.78;;;9.70;93.60;;;;;;5013517;28;20088;-70
2023/04/03 04:52:30;;;;;;;6.75;4.45;;;9.60;93.40;;;;;;5013774;28;20041;-70
2023/04/03 04:54:56;;;;;;;7.55;4.68;;;9.70;93.60;;;;;;5014206;28;20069;-70
2023/04/03 04:57:21;;;;;;;8.05;4.50;;;9.60;93.60;;;;;;5023546;28;20037;-70
2023/04/03 04:59:47;;;;;;;6.68;4.40;;;9.60;93.60;;;;;;5032867;28;20030;-70
2023/04/03 05:02:12;;;;;;;5.55;3.83;;;9.60;93.60;;;;;;5017526;28;20471;-70
2023/04/03 05:04:38;;;;;;;4.65;4.10;;;9.60;93.80;;;;;;4994463;28;20022;-70
2023/04/03 05:07:04;;;;;;;8.25;4.03;;;9.60;93.80;;;;;;5011108;28;20030;-70
2023/04/03 05:09:29;;;;;;;8.57;4.55;;;9.70;93.70;;;;;;5010782;28;20030;-70
2023/04/03 05:11:56;;;;;;;10.48;4.57;;;9.60;93.70;;;;;;5010070;28;20040;-70
2023/04/03 05:14:21;;;;;;;5.80;4.15;;;9.60;93.60;;;;;;5018980;28;20444;-70
2023/04/03 05:16:47;;;;;;;6.68;4.60;;;9.60;93.70;;;;;;5013242;28;20550;-70
2023/04/03 05:19:13;;;;;;;8.15;4.93;;;9.60;93.80;;;;;;5013139;28;20026;-70
2023/04/03 05:21:39;;;;;;;6.40;4.57;;;9.60;93.90;;;;;;5012905;28;20470;-69
2023/04/03 05:24:05;;;;;;;6.25;4.53;;;9.60;93.80;;;;;;5013011;28;20033;-69
2023/04/03 05:26:31;;;;;;;8.02;5.00;;;9.60;93.90;;;;;;5013472;28;20011;-69
2023/04/03 05:28:56;;;;;;;7.85;4.78;;;9.60;93.70;;;;;;5013238;28;20026;-69
2023/04/03 05:31:22;;;;;;;10.85;5.70;;;9.60;93.80;;;;;;5009830;28;20422;-69
2023/04/03 05:33:48;;;;;;;8.55;5.35;;;9.60;93.30;;;;;;5012904;28;20037;-70
2023/04/03 05:36:14;;;;;;;8.57;5.03;;;9.60;93.10;;;;;;5012997;28;20021;-70
2023/04/03 05:38:40;;;;;;;9.18;5.45;;;9.70;93.10;;;;;;5013063;28;20072;-69
2023/04/03 05:41:05;;;;;;;9.00;5.80;;;9.70;92.70;;;;;;5012167;28;20527;-69
2023/04/03 05:43:32;;;;;;;10.18;5.55;;;9.70;92.90;;;;;;5010435;28;20029;-70
2023/04/03 05:45:58;;;;;;;10.60;6.97;;;9.70;92.70;;;;;;5006686;28;20026;-70
2023/04/03 05:48:23;;;;;;;11.57;6.07;;;9.80;91.90;;;;;;5006985;28;20045;-69
2023/04/03 05:50:49;;;;;;;9.55;6.13;;;9.70;91.60;;;;;;5009383;28;20136;-69
2023/04/03 05:53:23;;;;;;;12.35;8.38;;;9.60;91.30;;;;;;5010373;28;20080;-69
2023/04/03 05:55:48;;;;;;;10.07;6.90;;;9.50;91.30;;;;;;5011514;28;20080;-70
2023/04/03 05:58:14;;;;;;;20.60;11.75;;;9.40;91.40;;;;;;5011786;28;20415;-69
2023/04/03 06:00:39;;;;;;;18.52;9.35;;;9.40;91.50;;;;;;5012642;28;20030;-69
2023/04/03 06:03:06;;;;;;;12.20;8.32;;;9.50;91.50;;;;;;5011538;28;20033;-69
2023/04/03 06:05:31;;;;;;;9.80;7.10;;;9.40;91.60;;;;;;5012616;28;20034;-70
2023/04/03 06:07:57;;;;;;;10.52;7.22;;;9.40;91.70;;;;;;5011434;28;20097;-69
2023/04/03 06:10:23;;;;;;;10.68;7.20;;;9.40;91.80;;;;;;5020374;28;20084;-69
2023/04/03 06:12:48;;;;;;;13.70;7.78;;;9.40;92.20;;;;;;5012618;28;20490;-69
2023/04/03 06:15:15;;;;;;;15.02;7.43;;;9.40;92.30;;;;;;5012039;28;20398;-70
2023/04/03 06:17:41;;;;;;;11.02;7.93;;;9.40;92.40;;;;;;5010654;28;20033;-70
2023/04/03 06:20:07;;;;;;;10.85;7.32;;;9.40;92.30;;;;;;5012138;28;20034;-70
2023/04/03 06:22:33;;;;;;;8.80;7.63;;;9.50;92.20;;;;;;5011472;28;20014;-69
2023/04/03 06:24:58;;;;;;;10.55;7.20;;;9.50;92.20;;;;;;5009445;28;20360;-70
2023/04/03 06:27:24;;;;;;;10.73;6.60;;;9.60;92.00;;;;;;5011630;28;20399;-70
2023/04/03 06:29:49;;;;;;;9.68;6.45;;;9.60;91.90;;;;;;5011920;28;20042;-70
2023/04/03 06:32:16;;;;;;;12.10;6.40;;;9.70;91.50;;;;;;5010037;28;20095;-70
2023/04/03 06:34:41;;;;;;;9.07;6.35;;;9.70;91.40;;;;;;5011149;28;20494;-70
2023/04/03 06:37:15;;;;;;;10.73;6.18;;;9.80;91.10;;;;;;5011526;28;20026;-70
2023/04/03 06:39:41;;;;;;;8.05;5.78;;;9.80;91.10;;;;;;5010354;28;20056;-70
2023/04/03 06:42:07;;;;;;;8.52;6.13;;;9.80;91.10;;;;;;5011573;28;20105;-70
2023/04/03 06:44:34;;;;;;;6.07;5.43;;;9.80;91.10;;;;;;5009493;28;20108;-70
2023/04/03 06:47:00;;;;;;;11.05;6.82;;;9.80;91.10;;;;;;5012077;28;20029;-70
2023/04/03 06:49:26;;;;;;;7.88;5.53;;;9.80;90.90;;;;;;5011189;28;20080;-70
2023/04/03 06:51:51;;;;;;;10.50;5.45;;;9.80;90.90;;;;;;5011599;28;20037;-70
2023/04/03 06:54:18;;;;;;;7.35;5.75;;;9.90;90.80;;;;;;5012002;28;20025;-70
2023/04/03 06:56:43;;;;;;;6.50;5.30;;;9.90;90.80;;;;;;5011926;28;20022;-70
2023/04/03 06:59:11;;;;;;;7.68;5.32;;;9.90;90.90;;;;;;5012170;28;20077;-70
2023/04/03 07:01:37;;;;;;;5.95;4.95;;;10.00;90.80;;;;;;5010774;28;20026;-70
2023/04/03 07:04:02;;;;;;;7.55;5.38;;;10.00;90.80;;;;;;5014960;28;20526;-70
2023/04/03 07:06:28;;;;;;;8.75;5.10;;;10.10;90.40;;;;;;5011194;28;20018;-70
2023/04/03 07:08:54;;;;;;;8.02;5.05;;;10.10;90.50;;;;;;5011603;28;20052;-70
2023/04/03 07:11:20;;;;;;;7.25;5.28;;;10.20;90.30;;;;;;5011925;28;20048;-71
2023/04/03 07:13:46;;;;;;;8.48;4.90;;;10.20;90.10;;;;;;5011720;28;20022;-70
2023/04/03 07:16:12;;;;;;;10.75;5.13;;;10.20;90.10;;;;;;5015599;28;20053;-69
2023/04/03 07:18:37;;;;;;;8.93;5.68;;;10.20;90.10;;;;;;5032949;28;20036;-69
2023/04/03 07:21:04;;;;;;;9.23;4.82;;;10.30;89.40;;;;;;5015736;28;20018;-69
2023/04/03 07:23:30;;;;;;;8.88;4.95;;;10.30;89.40;;;;;;5019573;28;20030;-69
2023/04/03 07:25:56;;;;;;;7.32;4.50;;;10.30;90.00;;;;;;5017432;28;20420;-69
2023/04/03 07:28:25;;;;;;;7.68;4.53;;;10.40;90.00;;;;;;5022450;28;20117;-69
2023/04/03 07:30:59;;;;;;;6.80;5.35;;;10.40;90.10;;;;;;5010168;28;20038;-70
2023/04/03 07:33:25;;;;;;;7.78;4.88;;;10.50;89.50;;;;;;5018247;28;20034;-69
2023/04/03 07:35:51;;;;;;;6.32;4.63;;;10.60;89.30;;;;;;5013884;28;20585;-69
2023/04/03 07:38:16;;;;;;;6.75;4.45;;;10.60;88.00;;;;;;4995880;28;20080;-70
2023/04/03 07:40:46;;;;;;;7.28;4.55;;;10.70;87.30;;;;;;5012167;28;20069;-69
2023/04/03 07:43:12;;;;;;;6.75;4.40;;;10.70;87.70;;;;;;5010919;28;20021;-70
2023/04/03 07:45:38;;;;;;;7.30;4.53;;;10.80;87.60;;;;;;5018644;28;20034;-69
2023/04/03 07:48:04;;;;;;;6.47;3.85;;;10.90;86.10;;;;;;5013933;28;20033;-69
2023/04/03 07:50:31;;;;;;;8.55;4.22;;;10.90;86.10;;;;;;5015150;28;20034;-68
2023/04/03 07:52:57;;;;;;;6.57;4.25;;;10.90;86.70;;;;;;5015655;28;20076;-69
2023/04/03 07:55:23;;;;;;;7.82;4.38;;;10.90;86.90;;;;;;5014943;28;20517;-69
2023/04/03 07:57:49;;;;;;;8.60;4.88;;;11.00;85.70;;;;;;5008190;28;20022;-70
2023/04/03 08:00:17;;;;;;;7.53;4.15;;;11.00;85.60;;;;;;5013478;28;20055;-69
2023/04/03 08:02:44;;;;;;;6.38;3.80;;;11.00;85.70;;;;;;5012024;28;20017;-70
2023/04/03 08:05:11;;;;;;;7.63;3.60;;;11.10;84.90;;;;;;5011217;28;22116;-69
2023/04/03 08:07:38;;;;;;;7.22;4.10;;;11.10;84.50;;;;;;5020569;28;20022;-68
2023/04/03 08:10:04;;;;;;;5.82;3.67;;;11.10;84.30;;;;;;5018323;28;20065;-69
2023/04/03 08:12:31;;;;;;;8.43;3.95;;;11.10;85.00;;;;;;5020299;28;20485;-70
2023/04/03 08:14:59;;;;;;;10.23;4.47;;;11.20;84.70;;;;;;5023555;28;20045;-69
2023/04/03 08:17:26;;;;;;;7.40;4.40;;;11.20;84.90;;;;;;5015745;28;20029;-68
2023/04/03 08:19:51;;;;;;;8.10;3.83;;;11.20;84.50;;;;;;5015149;28;20391;-68
2023/04/03 08:22:17;;;;;;;5.82;3.95;;;11.30;83.70;;;;;;5013222;28;20517;-69
2023/04/03 08:24:42;;;;;;;6.80;3.80;;;11.20;84.80;;;;;;5014056;28;20072;-68
2023/04/03 08:27:08;;;;;;;7.82;4.07;;;11.30;83.80;;;;;;5015591;28;20033;-68
2023/04/03 08:29:34;;;;;;;6.78;3.45;;;11.20;84.10;;;;;;5022752;28;20436;-68
2023/04/03 08:31:59;;;;;;;6.47;3.95;;;11.20;84.30;;;;;;5016856;28;20046;-68
2023/04/03 08:34:25;;;;;;;7.68;4.13;;;11.30;84.10;;;;;;5016652;28;20395;-68
2023/04/03 08:36:51;;;;;;;8.48;4.20;;;11.20;84.30;;;;;;5018907;28;20104;-68
2023/04/03 08:39:16;;;;;;;6.55;4.00;;;11.30;84.10;;;;;;5023726;28;20482;-68
2023/04/03 08:41:46;;;;;;;6.63;3.55;;;11.20;84.50;;;;;;5015492;28;20532;-69
2023/04/03 08:44:17;;;;;;;6.57;3.53;;;11.30;83.90;;;;;;5014476;28;20030;-70
2023/04/03 08:47:10;;;;;;;7.32;3.50;;;11.30;83.30;;;;;;5015551;28;20032;-69
2023/04/03 08:49:53;;;;;;;6.82;3.15;;;11.40;82.40;;;;;;5012702;28;20049;-68
2023/04/03 08:52:25;;;;;;;;;;;11.30;82.20;;;;;;5014196;28;20093;-67
2023/04/03 08:55:07;;;;;;;6.88;3.10;;;11.30;82.20;;;;;;5000730;28;19909;-68
2023/04/03 08:57:35;;;;;;;6.10;2.42;;;11.30;81.90;;;;;;5019423;28;20080;-68
2023/04/03 09:00:05;;;;;;;5.57;2.90;;;11.20;82.10;;;;;;5011320;28;20018;-68
2023/04/03 09:02:38;;;;;;;5.20;3.10;;;11.30;82.20;;;;;;5010845;28;20409;-68
2023/04/03 09:05:16;;;;;;;5.80;2.67;;;11.40;81.50;;;;;;5011365;28;20050;-67
2023/04/03 09:08:07;;;;;;;8.63;2.78;;;11.30;81.70;;;;;;5011105;28;20030;-68
2023/04/03 09:10:37;;;;;;;5.22;2.40;;;11.30;81.60;;;;;;5013280;28;20034;-68
2023/04/03 09:13:08;;;;;;;4.90;2.10;;;11.30;80.30;;;;;;5012338;28;20058;-68
2023/04/03 09:15:34;;;;;;;5.38;2.20;;;11.30;80.80;;;;;;5013349;28;20029;-68
2023/04/03 09:18:35;;;;;;;5.68;1.95;;;11.30;80.00;;;;;;5012618;28;20077;-68
2023/04/03 09:21:17;;;;;;;9.10;2.70;;;11.30;79.60;;;;;;4991746;28;20065;-68
2023/04/03 09:23:55;;;;;;;5.30;2.20;;;11.40;79.50;;;;;;5007265;28;20033;-68
2023/04/03 09:26:41;;;;;;;6.30;1.90;;;11.40;79.50;;;;;;5005563;28;20095;-68
2023/04/03 09:29:12;;;;;;;4.18;1.95;;;11.50;78.80;;;;;;5004478;28;20072;-67
2023/04/03 09:31:42;;;;;;;4.78;1.90;;;11.40;78.90;;;;;;5010736;28;20029;-68
2023/04/03 09:34:37;;;;;;;5.18;1.65;;;11.50;77.80;;;;;;5009728;28;20030;-68
2023/04/03 09:37:05;;;;;;;3.50;2.05;;;11.40;78.20;;;;;;5011131;28;20056;-68
2023/04/03 09:39:48;;;;;;;4.38;1.73;;;11.40;77.70;;;;;;5008153;28;20018;-68
2023/04/03 09:42:23;;;;;;;5.88;1.90;;;11.50;78.00;;;;;;5013451;28;20474;-69
2023/04/03 09:44:59;;;;;;;4.80;1.85;;;11.50;77.60;;;;;;5009551;28;20030;-68
2023/04/03 09:47:30;;;;;;;4.30;1.67;;;11.50;78.50;;;;;;5011087;28;20049;-68
2023/04/03 09:50:14;;;;;;;7.53;2.22;;;11.50;78.00;;;;;;5010607;28;20034;-67
2023/04/03 09:52:48;;;;;;;6.25;1.80;;;11.50;78.10;;;;;;5017805;28;20117;-67
2023/04/03 09:55:21;;;;;;;4.30;1.90;;;11.60;77.70;;;;;;5014581;28;20107;-68
2023/04/03 09:57:48;;;;;;;4.88;1.60;;;11.60;76.40;;;;;;5011610;28;20033;-68
2023/04/03 10:00:28;;;;;;;4.65;1.98;;;11.50;76.90;;;;;;5011670;28;20026;-69
2023/04/03 10:02:57;;;;;;;4.40;1.50;;;11.50;77.90;;;;;;5008201;28;20108;-68
2023/04/03 10:05:25;;;;;;;5.20;1.60;;;11.50;77.30;;;;;;5009179;28;20118;-67
2023/04/03 10:07:51;;;;;;;3.90;1.73;;;11.50;77.80;;;;;;5005335;28;20034;-67
2023/04/03 10:10:23;;;;;;;6.50;2.10;;;11.60;76.40;;;;;;5008691;28;20091;-68
2023/04/03 10:13:03;;;;;;;3.85;1.70;;;11.60;76.60;;;;;;5005101;28;20030;-67
2023/04/03 10:15:35;;;;;;;5.22;1.90;;;11.50;76.70;;;;;;5008183;28;20407;-67
2023/04/03 10:18:07;;;;;;;3.17;1.88;;;11.50;77.30;;;;;;5007626;28;20030;-67
2023/04/03 10:20:42;;;;;;;7.25;2.05;;;11.50;77.00;;;;;;5012890;28;20029;-66
2023/04/03 10:23:31;;;;;;;5.38;1.50;;;11.60;77.80;;;;;;5006878;28;20029;-66
2023/04/03 10:26:27;;;;;;;5.07;1.95;;;11.60;75.70;;;;;;5020059;28;20021;-66
2023/04/03 10:29:30;;;;;;;7.07;2.45;;;11.60;76.20;;;;;;5007352;28;20033;-66
2023/04/03 10:32:13;;;;;;;3.25;1.48;;;11.60;76.90;;;;;;5018559;28;20041;-66
2023/04/03 10:34:44;;;;;;;4.88;1.95;;;11.70;75.20;;;;;;5013350;28;20021;-66
2023/04/03 10:37:36;;;;;;;6.00;1.98;;;11.60;76.50;;;;;;5022995;28;20531;-67
2023/04/03 10:40:31;;;;;;;5.17;1.77;;;11.70;76.90;;;;;;5006300;28;20037;-67
2023/04/03 10:43:14;;;;;;;6.32;2.25;;;11.70;77.10;;;;;;5012519;28;20014;-68
2023/04/03 10:46:06;;;;;;;6.30;1.90;;;11.70;77.90;;;;;;5022124;28;20034;-68
2023/04/03 10:48:53;;;;;;;4.22;1.70;;;11.70;76.00;;;;;;5012744;28;20048;-68
2023/04/03 10:51:42;;;;;;;6.25;1.98;;;11.70;75.20;;;;;;5010486;28;20125;-68
2023/04/03 10:54:38;;;;;;;5.53;1.40;;;11.70;77.90;;;;;;5013350;28;20088;-67
2023/04/03 10:57:06;;;;;;;5.28;1.95;;;11.70;77.00;;;;;;5017275;28;20086;-67
2023/04/03 10:59:43;;;;;;;2.78;1.70;;;11.80;76.10;;;;;;5010576;28;20121;-68
2023/04/03 11:02:16;;;;;;;4.28;2.17;;;11.80;77.30;;;;;;5009629;28;20053;-67
2023/04/03 11:04:44;;;;;;;3.30;1.33;;;11.80;74.10;;;;;;5012527;28;20038;-67
2023/04/03 11:07:26;;;;;;;6.03;1.80;;;11.80;73.40;;;;;;5013797;28;20061;-67
2023/04/03 11:10:02;;;;;;;4.97;1.80;;;11.80;73.60;;;;;;5013790;28;20048;-66
2023/04/03 11:12:43;;;;;;;3.50;1.42;;;11.70;72.50;;;;;;5010485;28;20077;-67
2023/04/03 11:15:16;;;;;;;4.45;1.55;;;11.80;73.90;;;;;;5013300;28;20057;-67
2023/04/03 11:17:50;;;;;;;3.95;1.73;;;11.80;74.00;;;;;;5013362;28;20784;-67
2023/04/03 11:20:27;;;;;;;4.82;1.88;;;11.80;72.80;;;;;;5009196;28;20025;-67
2023/04/03 11:23:00;;;;;;;5.32;1.75;;;11.80;72.00;;;;;;5010460;28;20014;-67
2023/04/03 11:25:29;;;;;;;2.17;1.10;;;11.90;73.20;;;;;;5011618;28;20498;-67
2023/04/03 11:28:06;;;;;;;4.85;1.70;;;11.90;70.10;;;;;;5026508;28;20096;-67
2023/04/03 11:30:38;;;;;;;2.35;1.02;;;11.90;69.80;;;;;;5013496;28;20041;-67
2023/04/03 11:33:43;;;;;;;5.43;1.27;;;11.90;68.90;;;;;;5009681;28;20018;-66
2023/04/03 11:36:24;;;;;;;3.58;1.15;;;11.80;69.00;;;;;;4976794;28;20060;-65
2023/04/03 11:38:54;;;;;;;4.20;1.15;;;11.70;67.00;;;;;;5012705;28;20018;-66
2023/04/03 11:41:27;;;;;;;2.67;1.35;;;11.60;67.80;;;;;;5007344;28;20530;-66
2023/04/03 11:43:58;;;;;;;4.60;1.40;;;11.70;69.20;;;;;;5016547;28;20483;-67
2023/04/03 11:46:50;;;;;;;3.20;1.48;;;11.60;68.00;;;;;;5028193;28;20021;-67
2023/04/03 11:49:54;;;;;;;3.63;1.38;;;11.70;69.70;;;;;;5013596;28;20050;-66
2023/04/03 11:52:39;;;;;;;3.88;1.00;;;11.70;67.00;;;;;;4991236;28;20505;-66
2023/04/03 11:55:23;;;;;;;3.95;0.90;;;11.70;66.80;;;;;;4981673;28;20129;-67
2023/04/03 11:57:57;;;;;;;2.33;0.80;;;11.80;66.70;;;;;;5011786;28;20574;-67
2023/04/03 12:00:51;;;;;;;2.42;0.88;;;11.90;65.60;;;;;;5005452;28;20030;-68
2023/04/03 12:03:41;;;;;;;2.63;0.98;;;11.80;63.80;;;;;;5006268;28;20042;-67
2023/04/03 12:06:09;;;;;;;3.70;1.00;;;11.80;65.90;;;;;;4968368;28;20657;-66
2023/04/03 12:08:50;;;;;;;3.95;1.20;;;11.90;65.30;;;;;;5015623;28;20029;-68
2023/04/03 12:11:23;;;;;;;1.98;0.80;;;11.90;64.10;;;;;;5005847;28;20104;-68
2023/04/03 12:13:52;;;;;;;1.95;0.95;;;12.00;64.30;;;;;;4996726;28;20018;-66
2023/04/03 12:16:34;;;;;;;2.95;0.82;;;12.00;65.00;;;;;;5016652;28;20937;-66
2023/04/03 12:19:15;;;;;;;2.58;0.98;;;12.10;65.50;;;;;;5015996;28;20085;-66
2023/04/03 12:21:56;;;;;;;3.85;0.98;;;12.10;63.60;;;;;;5015360;28;20065;-65
2023/04/03 12:24:25;;;;;;;1.88;0.82;;;12.00;64.30;;;;;;5012901;28;20030;-66
2023/04/03 12:26:56;;;;;;;1.80;0.73;;;12.10;63.10;;;;;;5018590;28;20470;-66
2023/04/03 12:29:34;;;;;;;3.33;0.60;;;12.10;60.70;;;;;;5009145;28;20034;-66
2023/04/03 12:32:36;;;;;;;2.97;1.00;;;12.10;60.30;;;;;;4992744;28;20068;-66
2023/04/03 12:35:10;;;;;;;2.58;0.98;;;12.00;60.20;;;;;;5003358;28;20037;-66
2023/04/03 12:37:55;;;;;;;2.30;0.70;;;12.00;61.40;;;;;;5010286;28;20133;-67
2023/04/03 12:40:32;;;;;;;1.85;0.98;;;12.00;61.90;;;;;;5025692;28;20512;-67
2023/04/03 12:43:17;;;;;;;5.18;0.82;;;12.10;61.00;;;;;;5018609;28;20143;-68
2023/04/03 12:45:56;;;;;;;2.72;0.85;;;12.10;63.90;;;;;;5025090;28;20017;-68
2023/04/03 12:48:25;;;;;;;2.33;0.90;;;12.20;60.50;;;;;;5013880;28;20026;-68
2023/04/03 12:50:51;;;;;;;2.20;0.90;;;12.20;60.70;;;;;;5007957;28;20251;-68
2023/04/03 12:53:22;;;;;;;2.35;1.20;;;12.20;62.20;;;;;;5012510;28;21406;-68
2023/04/03 12:55:52;;;;;;;2.13;0.93;;;12.20;59.70;;;;;;5013501;28;20512;-68
2023/04/03 12:58:24;;;;;;;2.92;1.00;;;12.20;59.90;;;;;;5010691;28;20025;-68
2023/04/03 13:01:11;;;;;;;3.85;1.33;;;12.20;59.80;;;;;;5007644;28;20394;-68
2023/04/03 13:03:40;;;;;;;4.57;1.85;;;12.20;61.20;;;;;;5006506;28;20069;-69